Main page
METAR-TAF:

METAR-TAF

Airports :

A Coruña, Spain

A Coruña Airport

latitude: 43-18N, longitude: 008-23W, elevation: 97 m

Current weather observation

The report was made 49 minutes ago, at 16:00 UTC
Wind 9 kt from the Northwest, varying between West and Northeast
Temperature 20°C
Humidity 60%
Pressure 1020 hPa
Visibility 10 km or more
Scattered clouds at a height of 3400 ft

METAR: LECO 221600Z 32009KT 260V040 9999 SCT034 20/12 Q1020 NOSIG

Time: 18:49 (16:49 UTC)

Forecast

The report was made 2 hours and 49 minutes ago, at 14:00 UTC
Forecast valid from 22 at 15 UTC to 23 at 15 UTC
Wind 9 kt from the Northwest
Visibility 10 km or more
Scattered clouds at a height of 3500 ft
Probability 40% :
Temporary
from 23 at 06 UTC to 23 at 15 UTC
Broken clouds at a height of 1000 ft

TAF: LECO 221400Z 2215/2315 32009KT 9999 SCT035 TX22/2215Z TN15/2305Z PROB40 TEMPO 2306/2315 BKN010

Weather observations and forecasts of more than 4000 airports (METAR and TAF reports).

The available stations are represented by yellow and red dots on the map.

Hover mouse over dot to see the name of the station.

Then click to see weather observations and forecasts.

To change the map : click on the green buttons with a black cross to zoom in, on the green button with a dash to zoom out, or on the green arrows for adjacent maps.


METAR-TAF: